Time;durP1;ratioP1;P1;durP2;ratioP2;P2;SDS_P1;SDS_P2;PMS_P1;PMS_P2;Temp;Humidity;BMP_temperature;BMP_pressure;BME280_temperature;BME280_humidity;BME280_pressure;Samples;Min_cycle;Max_cycle;Signal;HPM_P1;HPM_P2
2021/03/09 00:01:41;;;;;;;19.13;9.38;;;;;;;0.82;58.56;96742.50;4981145;28;20137;-61
2021/03/09 00:04:06;;;;;;;19.38;10.02;;;;;;;0.81;58.06;96739.00;4978204;28;20043;-63
2021/03/09 00:06:31;;;;;;;23.45;11.13;;;;;;;0.81;58.75;96735.50;4979938;28;20041;-64
2021/03/09 00:08:57;;;;;;;19.73;9.35;;;;;;;0.75;58.85;96732.91;4981789;28;20072;-62
2021/03/09 00:11:22;;;;;;;18.67;9.80;;;;;;;0.74;58.86;96734.03;4976450;28;20042;-62
2021/03/09 00:13:48;;;;;;;16.67;9.80;;;;;;;0.77;58.85;96735.31;4987795;28;20042;-63
2021/03/09 00:16:13;;;;;;;18.52;9.48;;;;;;;0.78;59.01;96736.13;4992418;28;20086;-63
2021/03/09 00:18:38;;;;;;;21.38;10.10;;;;;;;0.64;59.67;96742.31;4989791;28;20042;-61
2021/03/09 00:21:04;;;;;;;25.67;10.13;;;;;;;0.68;60.08;96739.81;4972871;28;20062;-59
2021/03/09 00:23:29;;;;;;;20.55;10.85;;;;;;;0.54;60.49;96729.03;4962467;28;20138;-62
2021/03/09 00:25:56;;;;;;;19.85;9.98;;;;;;;0.50;60.09;96734.22;4962417;28;20049;-61
2021/03/09 00:28:21;;;;;;;22.30;10.40;;;;;;;0.36;61.08;96730.75;4956930;28;20047;-62
2021/03/09 00:30:48;;;;;;;19.08;9.68;;;;;;;0.37;61.40;96730.44;4961366;28;20054;-61
2021/03/09 00:33:13;;;;;;;15.95;9.57;;;;;;;0.40;61.20;96728.25;4956860;28;20054;-63
2021/03/09 00:35:39;;;;;;;21.02;10.75;;;;;;;0.35;62.06;96731.84;4962965;28;20480;-62
2021/03/09 00:38:04;;;;;;;20.00;9.40;;;;;;;0.30;62.32;96726.56;4964609;28;20046;-58
2021/03/09 00:40:30;;;;;;;21.65;9.90;;;;;;;0.39;61.86;96727.44;4980753;28;20077;-61
2021/03/09 00:42:55;;;;;;;16.95;8.82;;;;;;;0.25;62.27;96732.84;4980995;28;20108;-63
2021/03/09 00:45:21;;;;;;;20.92;10.05;;;;;;;0.13;63.10;96735.25;4977146;28;20135;-63
2021/03/09 00:47:47;;;;;;;19.05;9.52;;;;;;;0.08;63.29;96736.13;4988339;28;20422;-62
2021/03/09 00:50:12;;;;;;;15.63;9.27;;;;;;;0.10;63.32;96725.06;4975944;28;20137;-63
2021/03/09 00:52:38;;;;;;;15.50;8.95;;;;;;;0.02;63.80;96721.16;4980832;28;20814;-65
2021/03/09 00:55:04;;;;;;;17.92;9.73;;;;;;;0.04;63.71;96718.16;4978437;28;20868;-61
2021/03/09 00:57:29;;;;;;;20.48;10.48;;;;;;;-0.06;63.77;96717.25;4985545;28;20050;-65
2021/03/09 00:59:55;;;;;;;19.80;9.98;;;;;;;-0.17;63.87;96717.75;5000467;28;20497;-64
2021/03/09 01:02:20;;;;;;;18.35;8.90;;;;;;;-0.16;64.59;96713.94;4995932;28;20073;-63
2021/03/09 01:04:45;;;;;;;16.48;8.95;;;;;;;-0.17;64.72;96717.75;5000775;28;20140;-63
2021/03/09 01:07:11;;;;;;;18.25;9.23;;;;;;;-0.17;65.10;96721.22;4995713;28;20111;-63
2021/03/09 01:09:36;;;;;;;19.88;9.40;;;;;;;-0.13;64.61;96714.16;5001030;28;20054;-63
2021/03/09 01:12:02;;;;;;;17.65;9.45;;;;;;;-0.15;65.07;96713.66;5001401;28;20504;-61
2021/03/09 01:14:27;;;;;;;20.52;9.38;;;;;;;-0.14;64.74;96711.78;4998483;28;20049;-62
2021/03/09 01:16:53;;;;;;;19.75;9.25;;;;;;;-0.13;64.72;96710.66;4985030;28;20046;-60
2021/03/09 01:19:19;;;;;;;21.05;11.88;;;;;;;-0.17;64.95;96713.16;4989096;28;20034;-63
2021/03/09 01:21:44;;;;;;;22.75;10.35;;;;;;;-0.22;64.85;96710.53;4980475;28;20045;-62
2021/03/09 01:24:10;;;;;;;18.45;9.43;;;;;;;-0.27;65.15;96710.63;4975328;28;20129;-62
2021/03/09 01:26:35;;;;;;;16.58;9.68;;;;;;;-0.38;65.18;96712.69;4982363;28;20043;-63
2021/03/09 01:29:01;;;;;;;18.15;9.50;;;;;;;-0.47;66.05;96715.28;4979159;28;20042;-62
2021/03/09 01:31:26;;;;;;;16.23;10.13;;;;;;;-0.33;65.87;96711.81;4975088;28;20125;-62
2021/03/09 01:33:51;;;;;;;21.98;10.43;;;;;;;-0.40;66.30;96706.81;4980377;28;20049;-59
2021/03/09 01:36:17;;;;;;;17.77;10.07;;;;;;;-0.44;66.36;96705.81;4974527;28;20241;-60
2021/03/09 01:38:42;;;;;;;18.10;10.13;;;;;;;-0.52;66.43;96699.22;4979567;28;20144;-60
2021/03/09 01:41:08;;;;;;;18.40;9.68;;;;;;;-0.57;66.71;96691.25;4974544;28;20057;-61
2021/03/09 01:43:35;;;;;;;21.85;9.95;;;;;;;-0.71;66.71;96690.41;4980163;28;20038;-61
2021/03/09 01:46:00;;;;;;;20.05;10.13;;;;;;;-0.96;66.42;96692.38;4980154;28;20053;-61
2021/03/09 01:48:30;;;;;;;18.27;10.20;;;;;;;-1.05;68.04;96691.44;4985750;28;20038;-61
2021/03/09 01:50:56;;;;;;;15.75;9.10;;;;;;;-1.10;68.86;96697.69;4997365;28;20398;-64
2021/03/09 01:53:21;;;;;;;17.50;9.75;;;;;;;-1.10;68.20;96691.50;4975652;28;20056;-63
2021/03/09 01:55:47;;;;;;;18.67;10.07;;;;;;;-1.20;68.68;96684.41;4985628;28;20050;-63
2021/03/09 01:58:14;;;;;;;22.20;10.30;;;;;;;-1.20;69.02;96684.41;4988234;28;20133;-63
2021/03/09 02:00:40;;;;;;;16.85;10.57;;;;;;;-1.32;68.90;96687.53;4993955;28;20078;-64
2021/03/09 02:03:07;;;;;;;18.38;10.30;;;;;;;-1.58;69.18;96689.75;4986555;28;20043;-61
2021/03/09 02:05:33;;;;;;;23.27;9.55;;;;;;;-1.67;70.20;96684.22;4987207;28;20049;-63
2021/03/09 02:07:58;;;;;;;19.83;9.43;;;;;;;-1.71;70.54;96674.34;4986513;28;20042;-64
2021/03/09 02:10:25;;;;;;;16.90;9.02;;;;;;;-1.68;70.61;96684.50;4969242;28;20084;-63
2021/03/09 02:13:28;;;;;;;17.85;9.50;;;;;;;-1.73;71.27;96678.13;4999744;28;20050;-62
2021/03/09 02:15:59;;;;;;;20.75;9.93;;;;;;;-1.86;70.43;96684.16;5000651;28;20038;-63
2021/03/09 02:18:43;;;;;;;20.05;10.70;;;;;;;-1.89;70.59;96681.25;4977114;28;20042;-63
2021/03/09 02:21:37;;;;;;;17.05;9.93;;;;;;;-1.77;71.85;96678.97;4993350;28;20050;-63
2021/03/09 02:24:22;;;;;;;19.73;10.00;;;;;;;-2.01;70.95;96681.69;5011651;28;20443;-62
2021/03/09 02:26:53;;;;;;;21.05;9.60;;;;;;;-2.13;71.05;96674.81;4999380;28;20046;-63
2021/03/09 02:29:42;;;;;;;21.17;9.93;;;;;;;-2.35;72.12;96671.84;4992216;28;20051;-65
2021/03/09 02:32:23;;;;;;;19.43;10.97;;;;;;;-2.47;73.26;96669.53;4949247;28;20034;-63
2021/03/09 02:34:55;;;;;;;20.40;10.43;;;;;;;-2.53;73.25;96676.03;4982336;28;20038;-62
2021/03/09 02:37:23;;;;;;;23.50;10.18;;;;;;;-2.49;74.18;96671.69;4979561;28;20038;-61
2021/03/09 02:39:50;;;;;;;17.52;9.20;;;;;;;-2.59;72.66;96666.41;4980738;28;20087;-63
2021/03/09 02:42:24;;;;;;;17.13;9.82;;;;;;;-2.72;73.10;96668.69;4976563;28;20043;-62
2021/03/09 02:44:56;;;;;;;25.90;11.45;;;;;;;-2.76;74.23;96662.28;5007585;28;20130;-63
2021/03/09 02:47:23;;;;;;;18.50;9.70;;;;;;;-2.83;72.93;96669.84;4988607;28;20065;-63
2021/03/09 02:49:52;;;;;;;19.83;9.10;;;;;;;-2.85;73.83;96666.66;5000084;28;20050;-63
2021/03/09 02:52:20;;;;;;;21.98;9.45;;;;;;;-2.78;74.78;96669.00;4977886;28;20047;-63
2021/03/09 02:54:47;;;;;;;17.67;9.18;;;;;;;-2.90;73.58;96664.00;4968182;28;20043;-63
2021/03/09 02:57:15;;;;;;;16.85;9.63;;;;;;;-2.86;75.12;96659.69;4975098;28;20031;-63
2021/03/09 02:59:41;;;;;;;20.52;9.98;;;;;;;-2.79;75.26;96657.50;4971629;28;20043;-61
2021/03/09 03:02:08;;;;;;;18.20;9.25;;;;;;;-2.83;74.33;96653.75;4965723;28;20405;-63
2021/03/09 03:04:35;;;;;;;20.02;8.77;;;;;;;-2.94;73.88;96658.41;4991307;28;20133;-61
2021/03/09 03:07:01;;;;;;;19.15;9.57;;;;;;;-3.11;73.36;96650.78;4996135;28;20050;-63
2021/03/09 03:09:27;;;;;;;18.58;9.30;;;;;;;-3.22;74.13;96651.94;4980516;28;20058;-63
2021/03/09 03:11:53;;;;;;;17.73;9.25;;;;;;;-3.31;75.19;96653.63;4986391;28;20048;-63
2021/03/09 03:14:20;;;;;;;21.00;10.02;;;;;;;-3.40;77.28;96653.41;4991463;28;20049;-63
2021/03/09 03:16:45;;;;;;;19.30;9.23;;;;;;;-3.49;76.80;96653.19;5000504;28;20125;-63
2021/03/09 03:19:13;;;;;;;20.33;10.85;;;;;;;-3.62;78.74;96663.69;4998319;28;20041;-63
2021/03/09 03:21:40;;;;;;;20.40;11.07;;;;;;;-3.68;80.26;96657.56;4995221;28;20046;-62
2021/03/09 03:24:08;;;;;;;22.15;10.02;;;;;;;-3.74;78.90;96661.34;4977266;28;21722;-62
2021/03/09 03:26:38;;;;;;;21.15;9.90;;;;;;;-3.78;78.15;96665.63;4983775;28;20440;-63
2021/03/09 03:29:06;;;;;;;21.67;10.43;;;;;;;-3.78;77.40;96654.94;4975899;28;20048;-61
2021/03/09 03:31:32;;;;;;;21.40;10.73;;;;;;;-3.70;78.49;96662.41;4994309;28;20042;-62
2021/03/09 03:33:57;;;;;;;19.55;10.43;;;;;;;-3.51;79.51;96662.56;4987242;28;20050;-62
2021/03/09 03:36:23;;;;;;;20.40;10.30;;;;;;;-3.56;77.50;96662.59;4977530;28;20874;-63
2021/03/09 03:38:49;;;;;;;19.70;10.50;;;;;;;-3.59;76.95;96657.78;4991250;28;20128;-63
2021/03/09 03:41:14;;;;;;;20.15;10.27;;;;;;;-3.51;78.31;96662.56;4985562;28;20030;-61
2021/03/09 03:43:40;;;;;;;19.48;9.77;;;;;;;-3.47;78.91;96653.69;4991430;28;20057;-62
2021/03/09 03:46:07;;;;;;;20.73;10.15;;;;;;;-3.46;78.62;96649.97;4955769;28;20038;-61
2021/03/09 03:48:35;;;;;;;21.60;9.90;;;;;;;-3.43;78.76;96647.81;4998306;28;20042;-61
2021/03/09 03:51:02;;;;;;;17.50;9.27;;;;;;;-3.32;79.28;96652.00;4994904;28;20042;-61
2021/03/09 03:53:37;;;;;;;20.75;10.18;;;;;;;-3.43;77.80;96655.84;4986960;28;20058;-62
2021/03/09 03:56:41;;;;;;;16.30;9.35;;;;;;;-3.59;78.09;96655.91;4986777;28;20038;-60
2021/03/09 03:59:21;;;;;;;18.92;8.98;;;;;;;-3.65;77.86;96649.78;4976923;28;20554;-61
2021/03/09 04:01:47;;;;;;;17.08;9.07;;;;;;;-3.73;78.53;96653.03;4988721;28;20128;-64
2021/03/09 04:04:14;;;;;;;19.45;11.23;;;;;;;-3.84;78.29;96646.13;4987818;28;20215;-64
2021/03/09 04:06:49;;;;;;;20.80;10.25;;;;;;;-3.79;80.12;96646.13;4982408;28;20117;-63
2021/03/09 04:09:16;;;;;;;21.50;9.93;;;;;;;-3.80;80.01;96654.41;4978050;28;20148;-63
2021/03/09 04:11:42;;;;;;;22.17;10.90;;;;;;;-3.95;80.35;96657.97;4989454;28;20263;-63
2021/03/09 04:14:09;;;;;;;15.85;8.98;;;;;;;-4.03;79.83;96665.47;4980791;28;20042;-62
2021/03/09 04:16:36;;;;;;;16.55;9.30;;;;;;;-3.99;80.42;96663.06;4989888;28;20042;-62
2021/03/09 04:19:04;;;;;;;25.05;9.75;;;;;;;-4.00;79.97;96656.09;4983003;28;20093;-64
2021/03/09 04:21:32;;;;;;;17.30;8.85;;;;;;;-3.96;80.55;96661.69;4984448;28;20050;-62
2021/03/09 04:23:59;;;;;;;19.33;9.30;;;;;;;-3.88;81.04;96666.50;4992065;28;20093;-63
2021/03/09 04:26:26;;;;;;;18.52;9.63;;;;;;;-3.74;81.41;96661.34;4997204;28;20619;-62
2021/03/09 04:28:53;;;;;;;21.85;10.32;;;;;;;-3.88;80.25;96648.56;5000954;28;20042;-63
2021/03/09 04:31:19;;;;;;;20.65;9.68;;;;;;;-4.10;80.84;96656.16;4972241;28;20039;-63
2021/03/09 04:33:46;;;;;;;18.58;10.25;;;;;;;-4.25;83.04;96665.00;5008210;28;20088;-63
2021/03/09 04:36:13;;;;;;;25.75;10.75;;;;;;;-4.27;83.27;96669.84;4958086;28;20097;-61
2021/03/09 04:38:39;;;;;;;26.13;11.73;;;;;;;-4.26;83.50;96666.91;4991087;28;20042;-60
2021/03/09 04:41:04;;;;;;;23.50;11.10;;;;;;;-4.00;83.97;96664.13;4984514;28;20121;-62
2021/03/09 04:43:30;;;;;;;23.30;12.35;;;;;;;-3.80;83.54;96668.59;4989624;28;20053;-60
2021/03/09 04:45:57;;;;;;;19.95;11.88;;;;;;;-3.82;82.82;96662.72;4999073;28;20049;-60
2021/03/09 04:48:24;;;;;;;20.67;10.52;;;;;;;-3.77;82.48;96662.69;4981939;28;20502;-61
2021/03/09 04:50:50;;;;;;;26.13;13.35;;;;;;;-3.97;80.92;96666.25;4984041;28;20054;-59
2021/03/09 04:53:17;;;;;;;23.92;11.18;;;;;;;-4.11;82.54;96663.38;4984863;28;20050;-60
2021/03/09 04:55:42;;;;;;;27.65;12.10;;;;;;;-4.28;81.06;96666.38;4982313;28;20133;-63
2021/03/09 04:58:07;;;;;;;23.85;11.85;;;;;;;-4.37;82.16;96667.22;4975930;28;20130;-62
2021/03/09 05:00:33;;;;;;;22.23;12.48;;;;;;;-4.46;81.88;96670.41;4961851;28;20039;-61
2021/03/09 05:02:58;;;;;;;22.05;10.98;;;;;;;-4.53;81.83;96671.78;4988648;28;20117;-61
2021/03/09 05:05:24;;;;;;;26.77;12.15;;;;;;;-4.54;81.95;96668.28;4970435;28;20385;-62
2021/03/09 05:07:52;;;;;;;22.08;11.18;;;;;;;-4.60;81.68;96669.38;4990849;28;20515;-60
2021/03/09 05:10:18;;;;;;;24.98;11.52;;;;;;;-4.60;83.27;96669.38;4969973;28;20800;-59
2021/03/09 05:12:46;;;;;;;20.13;10.77;;;;;;;-4.58;83.55;96666.44;4988759;28;20069;-63
2021/03/09 05:15:12;;;;;;;29.88;13.20;;;;;;;-4.44;83.86;96667.47;4984765;28;20458;-63
2021/03/09 05:17:38;;;;;;;21.02;11.25;;;;;;;-4.24;84.42;96672.75;4991347;28;20054;-61
2021/03/09 05:20:09;;;;;;;24.40;12.40;;;;;;;-4.09;84.59;96663.09;4971980;28;20746;-60
2021/03/09 05:22:36;;;;;;;21.10;10.93;;;;;;;-4.18;83.64;96672.75;4988171;28;20045;-61
2021/03/09 05:25:01;;;;;;;21.52;11.52;;;;;;;-4.26;83.03;96664.22;4981661;28;20041;-60
2021/03/09 05:27:27;;;;;;;21.52;10.93;;;;;;;-4.19;83.50;96674.63;4975796;28;20488;-62
2021/03/09 05:29:52;;;;;;;21.77;11.00;;;;;;;-4.30;82.74;96676.53;4990203;28;20453;-63
2021/03/09 05:32:17;;;;;;;22.02;10.77;;;;;;;-4.43;81.49;96667.22;4987511;28;20107;-61
2021/03/09 05:34:43;;;;;;;19.65;10.93;;;;;;;-4.54;82.28;96665.59;4989439;28;20042;-61
2021/03/09 05:37:09;;;;;;;19.30;10.63;;;;;;;-4.60;82.50;96666.69;4983580;28;20050;-58
2021/03/09 05:39:36;;;;;;;21.23;10.85;;;;;;;-4.67;82.19;96672.31;4992488;28;20053;-61
2021/03/09 05:42:04;;;;;;;21.00;10.10;;;;;;;-4.69;82.33;96674.47;4995881;28;20105;-61
2021/03/09 05:44:32;;;;;;;20.52;9.25;;;;;;;-4.58;83.01;96671.78;4993747;28;20050;-61
2021/03/09 05:46:57;;;;;;;21.20;10.40;;;;;;;-4.46;83.43;96673.09;4980736;28;20410;-60
2021/03/09 05:49:23;;;;;;;21.05;10.60;;;;;;;-4.31;84.56;96679.47;4983543;28;20126;-63
2021/03/09 05:51:48;;;;;;;26.35;11.60;;;;;;;-4.37;83.14;96673.34;4981157;28;20042;-63
2021/03/09 05:54:14;;;;;;;21.23;10.93;;;;;;;-4.23;83.88;96684.28;4985645;28;20386;-61
2021/03/09 05:56:39;;;;;;;22.63;10.43;;;;;;;-3.88;84.93;96688.69;5001050;28;20041;-63
2021/03/09 05:59:04;;;;;;;20.92;10.38;;;;;;;-3.72;84.57;96694.78;4982879;28;20042;-63
2021/03/09 06:01:31;;;;;;;20.83;9.55;;;;;;;-3.86;81.75;96691.09;4982073;28;20070;-64
2021/03/09 06:03:58;;;;;;;20.10;10.52;;;;;;;-3.93;81.41;96691.38;4985548;28;20514;-63
2021/03/09 06:06:24;;;;;;;16.77;10.38;;;;;;;-4.07;81.23;96690.38;4986350;28;20116;-64
2021/03/09 06:08:49;;;;;;;26.75;11.35;;;;;;;-4.09;84.46;96689.84;4991416;28;20042;-59
2021/03/09 06:11:17;;;;;;;18.98;9.93;;;;;;;-4.08;84.77;96691.47;4987262;28;20641;-62
2021/03/09 06:13:42;;;;;;;18.55;9.68;;;;;;;-3.91;83.84;96693.78;4992264;28;20050;-61
2021/03/09 06:16:09;;;;;;;18.38;9.93;;;;;;;-3.68;83.16;96692.38;4983474;28;20043;-62
2021/03/09 06:18:34;;;;;;;20.63;10.73;;;;;;;-3.40;82.48;96698.09;4987592;28;20046;-63
2021/03/09 06:21:08;;;;;;;20.50;10.35;;;;;;;-3.02;80.98;96698.44;4988220;28;20096;-61
2021/03/09 06:23:34;;;;;;;20.55;10.10;;;;;;;-2.62;79.72;96689.25;4989264;28;20057;-62
2021/03/09 06:25:59;;;;;;;22.60;11.27;;;;;;;-2.16;79.97;96688.81;4989145;28;20046;-64
2021/03/09 06:28:31;;;;;;;23.02;10.18;;;;;;;-1.53;78.76;96689.69;4990007;28;20046;-62
2021/03/09 06:31:01;;;;;;;21.60;9.63;;;;;;;-0.73;74.54;96687.19;4981453;28;21172;-63
2021/03/09 06:33:27;;;;;;;;;;;;;;;-0.03;70.90;96692.44;4982690;28;20139;-61
2021/03/09 06:35:53;;;;;;;13.82;8.50;;;;;;;0.60;68.29;96695.50;4990530;28;19917;-62
2021/03/09 06:38:24;;;;;;;21.35;9.32;;;;;;;1.31;65.06;96698.50;4984365;28;20440;-62
2021/03/09 06:41:18;;;;;;;18.98;8.27;;;;;;;1.93;61.96;96696.97;4989319;28;20073;-63
2021/03/09 06:44:01;;;;;;;19.15;8.55;;;;;;;2.63;59.84;96698.00;5004717;28;20042;-63
2021/03/09 06:46:27;;;;;;;17.35;8.55;;;;;;;3.13;58.53;96691.38;5003510;28;20136;-61
2021/03/09 06:48:55;;;;;;;18.98;9.20;;;;;;;3.42;55.58;96696.16;5011194;28;20061;-62
2021/03/09 06:51:32;;;;;;;20.42;8.30;;;;;;;3.55;56.31;96694.38;5001049;28;20039;-62
2021/03/09 06:54:04;;;;;;;19.30;9.25;;;;;;;4.02;54.99;96702.56;5002585;28;20054;-62
2021/03/09 06:56:31;;;;;;;14.75;8.55;;;;;;;3.87;56.22;96696.84;4995877;28;20042;-62
2021/03/09 06:59:15;;;;;;;16.35;8.45;;;;;;;4.79;53.65;96704.44;5008779;28;20137;-62
2021/03/09 07:01:40;;;;;;;15.18;8.40;;;;;;;5.28;51.64;96712.09;4995097;28;20050;-63
2021/03/09 07:04:20;;;;;;;16.23;8.77;;;;;;;5.84;50.82;96709.81;4990799;28;20104;-62
2021/03/09 07:06:45;;;;;;;15.75;8.98;;;;;;;4.98;51.05;96714.84;4996575;28;20051;-63
2021/03/09 07:09:11;;;;;;;16.25;8.80;;;;;;;5.48;50.70;96722.16;4998125;28;20042;-62
2021/03/09 07:11:36;;;;;;;17.35;8.70;;;;;;;5.34;49.85;96716.19;5000728;28;20081;-63
2021/03/09 07:14:02;;;;;;;16.33;8.82;;;;;;;5.22;52.12;96725.09;4994005;28;20045;-63
2021/03/09 07:16:28;;;;;;;15.45;8.32;;;;;;;5.59;51.70;96724.47;4995078;28;20077;-63
2021/03/09 07:18:54;;;;;;;20.52;9.45;;;;;;;6.36;49.25;96724.81;4998272;28;20053;-63
2021/03/09 07:21:20;;;;;;;16.98;9.10;;;;;;;6.99;47.20;96729.13;4982029;28;20050;-65
2021/03/09 07:23:45;;;;;;;18.23;10.18;;;;;;;7.23;47.04;96729.06;4990851;28;20045;-63
2021/03/09 07:26:13;;;;;;;14.25;8.88;;;;;;;7.90;45.55;96728.59;4987920;28;20069;-63
2021/03/09 07:28:42;;;;;;;19.95;9.95;;;;;;;8.21;44.78;96722.44;4984228;28;20054;-63
2021/03/09 07:31:07;;;;;;;14.07;8.65;;;;;;;8.46;42.81;96721.50;4972098;28;20054;-62
2021/03/09 07:33:34;;;;;;;16.40;9.10;;;;;;;8.45;43.92;96723.44;4984838;28;20042;-63
2021/03/09 07:36:03;;;;;;;17.75;9.77;;;;;;;7.28;46.03;96722.59;4989888;28;20133;-63
2021/03/09 07:38:29;;;;;;;20.67;10.63;;;;;;;6.11;48.82;96721.25;4989314;28;20046;-65
2021/03/09 07:40:55;;;;;;;16.27;10.75;;;;;;;7.09;47.59;96723.19;5000614;28;20143;-65
2021/03/09 07:43:21;;;;;;;15.82;9.82;;;;;;;6.89;47.27;96724.91;4993286;28;20038;-63
2021/03/09 07:45:47;;;;;;;17.33;10.73;;;;;;;5.72;51.50;96728.81;4994284;28;20046;-64
2021/03/09 07:48:18;;;;;;;19.70;10.70;;;;;;;6.26;51.07;96736.91;4989129;28;20042;-63
2021/03/09 07:50:46;;;;;;;22.55;13.27;;;;;;;4.71;55.42;96730.50;4970336;28;20053;-63
2021/03/09 07:53:21;;;;;;;20.75;12.57;;;;;;;3.85;57.78;96734.31;4981281;28;20045;-63
2021/03/09 07:55:48;;;;;;;26.92;15.43;;;;;;;4.29;58.25;96729.59;4990914;28;20121;-63
2021/03/09 07:58:26;;;;;;;28.00;13.52;;;;;;;6.47;52.34;96734.09;4987269;28;20044;-61
2021/03/09 08:00:52;;;;;;;19.67;10.88;;;;;;;6.54;52.37;96730.06;4994175;28;20053;-63
2021/03/09 08:03:19;;;;;;;18.50;11.65;;;;;;;6.95;50.65;96737.19;4967108;28;20124;-63
2021/03/09 08:05:51;;;;;;;23.20;11.93;;;;;;;8.42;46.59;96727.66;4979985;28;20430;-64
2021/03/09 08:08:51;;;;;;;19.95;11.27;;;;;;;6.00;51.57;96739.91;4980101;28;20046;-64
2021/03/09 08:11:20;;;;;;;23.63;12.75;;;;;;;4.75;56.81;96745.00;4983810;28;20042;-63
2021/03/09 08:13:47;;;;;;;20.70;11.98;;;;;;;4.50;56.42;96743.19;4984100;28;20042;-62
2021/03/09 08:16:21;;;;;;;25.35;12.10;;;;;;;6.01;54.18;96736.06;4990084;28;20053;-64
2021/03/09 08:18:48;;;;;;;23.85;12.02;;;;;;;6.74;51.25;96731.84;4993900;28;20054;-63
2021/03/09 08:21:15;;;;;;;24.63;12.20;;;;;;;5.40;53.23;96735.78;4988478;28;20078;-63
2021/03/09 08:23:40;;;;;;;20.13;12.73;;;;;;;3.65;59.06;96731.16;4984549;28;20105;-63
2021/03/09 08:26:19;;;;;;;25.70;14.20;;;;;;;2.49;64.21;96741.38;4980769;28;20446;-63
2021/03/09 08:28:44;;;;;;;21.75;12.50;;;;;;;2.64;64.17;96742.06;4983345;28;20038;-63
2021/03/09 08:31:10;;;;;;;25.00;14.32;;;;;;;2.40;64.74;96743.25;4975368;28;20045;-63
2021/03/09 08:33:40;;;;;;;23.83;13.07;;;;;;;2.31;65.63;96745.13;4989917;28;20050;-63
2021/03/09 08:36:23;;;;;;;;;;;;;;;2.23;64.93;96745.88;4979523;28;20382;-63
2021/03/09 08:39:19;;;;;;;28.80;13.55;;;;;;;1.96;66.66;96747.66;4986466;28;19913;-64
2021/03/09 08:41:44;;;;;;;27.73;13.05;;;;;;;1.91;67.86;96742.41;5001096;28;20073;-63
2021/03/09 08:44:19;;;;;;;26.50;13.23;;;;;;;2.79;65.00;96748.94;4981497;28;20454;-64
2021/03/09 08:47:04;;;;;;;29.00;14.38;;;;;;;3.54;63.19;96752.34;4989768;28;20064;-64
2021/03/09 08:49:35;;;;;;;23.70;13.43;;;;;;;5.62;55.90;96743.59;5000472;28;20651;-64
2021/03/09 08:52:17;;;;;;;26.58;13.10;;;;;;;6.27;52.23;96746.66;5001309;28;20048;-63
2021/03/09 08:54:48;;;;;;;23.25;11.13;;;;;;;7.18;49.91;96731.25;4973932;28;20042;-63
2021/03/09 08:57:13;;;;;;;19.55;12.05;;;;;;;7.61;48.39;96733.28;4982295;28;20452;-64
2021/03/09 08:59:40;;;;;;;25.42;12.70;;;;;;;7.50;48.52;96734.91;4980741;28;20046;-64
2021/03/09 09:02:07;;;;;;;24.13;12.88;;;;;;;4.84;54.87;96749.59;4972847;28;20121;-63
2021/03/09 09:04:33;;;;;;;22.67;13.30;;;;;;;3.32;61.48;96744.41;4981079;28;20046;-63
2021/03/09 09:06:59;;;;;;;23.10;13.80;;;;;;;2.77;64.14;96743.84;4963856;28;20054;-65
2021/03/09 09:09:36;;;;;;;24.20;13.23;;;;;;;5.01;57.32;96741.34;4980955;28;20074;-62
2021/03/09 09:12:22;;;;;;;26.27;13.52;;;;;;;5.40;54.57;96744.72;4989874;28;20096;-63
2021/03/09 09:15:01;;;;;;;27.50;14.18;;;;;;;4.32;59.07;96734.34;5000435;28;20125;-63
2021/03/09 09:17:27;;;;;;;28.05;14.63;;;;;;;4.48;58.75;96737.31;4987865;28;20046;-63
2021/03/09 09:20:03;;;;;;;24.52;13.02;;;;;;;5.49;54.94;96741.94;4982631;28;20614;-63
2021/03/09 09:22:29;;;;;;;23.88;12.98;;;;;;;6.39;53.86;96737.75;4962087;28;20042;-61
2021/03/09 09:24:57;;;;;;;23.98;13.07;;;;;;;7.80;49.09;96740.03;4980419;28;20042;-62
2021/03/09 09:27:22;;;;;;;22.67;12.43;;;;;;;7.71;49.08;96725.75;4965545;28;20353;-61
2021/03/09 09:29:53;;;;;;;22.92;12.23;;;;;;;8.63;46.18;96737.53;4997953;28;20140;-61
2021/03/09 09:32:18;;;;;;;24.95;13.05;;;;;;;9.13;45.03;96733.25;4994841;28;20042;-62
2021/03/09 09:34:44;;;;;;;20.13;12.23;;;;;;;9.52;43.86;96735.22;4999535;28;20045;-63
2021/03/09 09:37:12;;;;;;;26.27;12.63;;;;;;;8.90;45.14;96730.38;4995118;28;20482;-63
2021/03/09 09:39:37;;;;;;;20.95;12.38;;;;;;;8.97;45.25;96727.81;4995325;28;20057;-63
2021/03/09 09:42:03;;;;;;;24.08;13.95;;;;;;;9.16;43.98;96737.19;4995018;28;20034;-63
2021/03/09 09:44:29;;;;;;;23.17;14.18;;;;;;;9.26;44.50;96725.72;4984225;28;20046;-63
2021/03/09 09:46:55;;;;;;;25.92;16.38;;;;;;;6.48;50.00;96730.25;4989111;28;20134;-63
2021/03/09 09:49:21;;;;;;;26.25;16.23;;;;;;;6.15;53.96;96730.31;4975749;28;20369;-63
2021/03/09 09:51:47;;;;;;;28.42;16.48;;;;;;;6.58;51.03;96723.56;4962484;28;20049;-63
2021/03/09 09:54:13;;;;;;;49.80;28.58;;;;;;;5.14;56.87;96721.28;4956342;28;20054;-63
2021/03/09 09:56:38;;;;;;;44.83;24.60;;;;;;;4.49;58.12;96731.56;4972970;28;20491;-62
2021/03/09 09:59:04;;;;;;;29.08;15.57;;;;;;;4.16;60.33;96732.19;4977385;28;20100;-63
2021/03/09 10:01:32;;;;;;;43.55;25.45;;;;;;;3.45;62.61;96736.09;4979179;28;20053;-62
2021/03/09 10:04:00;;;;;;;38.25;21.13;;;;;;;3.81;61.69;96742.28;4962628;28;20050;-63
2021/03/09 10:06:30;;;;;;;59.97;32.17;;;;;;;4.46;60.14;96743.06;4975029;28;20038;-63
2021/03/09 10:09:08;;;;;;;49.28;25.33;;;;;;;4.43;60.88;96730.16;4980588;28;20201;-63
2021/03/09 10:11:44;;;;;;;40.92;22.60;;;;;;;6.19;55.43;96736.66;4983937;28;20042;-63
2021/03/09 10:14:10;;;;;;;40.53;23.23;;;;;;;7.78;49.91;96724.03;4982508;28;20049;-63
2021/03/09 10:16:37;;;;;;;41.40;23.70;;;;;;;6.38;52.72;96727.97;4980546;28;20039;-62
2021/03/09 10:19:02;;;;;;;35.85;19.08;;;;;;;5.54;55.80;96731.66;4975774;28;20050;-63
2021/03/09 10:21:32;;;;;;;52.17;29.95;;;;;;;4.39;59.97;96731.91;4984380;28;20050;-63
2021/03/09 10:24:00;;;;;;;41.78;24.67;;;;;;;5.62;56.93;96731.94;4979211;28;20474;-62
2021/03/09 10:26:43;;;;;;;52.13;30.73;;;;;;;6.64;53.92;96726.84;4971555;28;20042;-63
2021/03/09 10:29:16;;;;;;;50.10;28.42;;;;;;;7.62;51.03;96728.63;4971130;28;20045;-64
2021/03/09 10:31:52;;;;;;;34.45;18.88;;;;;;;7.23;52.78;96731.78;4984577;28;20050;-64
2021/03/09 10:34:19;;;;;;;32.42;16.17;;;;;;;5.55;56.34;96737.91;4977419;28;20337;-63
2021/03/09 10:37:01;;;;;;;39.55;21.20;;;;;;;5.35;57.55;96734.09;4975736;28;20042;-63
2021/03/09 10:39:29;;;;;;;34.75;20.63;;;;;;;4.98;59.39;96734.63;4961455;28;20058;-63
2021/03/09 10:41:55;;;;;;;34.40;20.80;;;;;;;4.01;61.70;96732.69;4992513;28;20111;-64
2021/03/09 10:44:34;;;;;;;32.65;18.40;;;;;;;4.90;59.62;96732.78;4993400;28;20097;-63
2021/03/09 10:47:01;;;;;;;37.28;20.95;;;;;;;4.22;61.78;96728.16;4963282;28;20041;-61
2021/03/09 10:49:28;;;;;;;41.88;23.77;;;;;;;4.26;61.87;96727.50;4993094;28;20219;-61
2021/03/09 10:52:00;;;;;;;43.72;23.52;;;;;;;5.42;59.47;96733.53;4992100;28;20050;-61
2021/03/09 10:54:26;;;;;;;34.38;19.25;;;;;;;4.94;60.10;96731.00;4988615;28;20100;-62
2021/03/09 10:56:51;;;;;;;51.10;25.85;;;;;;;4.21;61.00;96723.06;4993090;28;20493;-60
2021/03/09 10:59:17;;;;;;;56.65;27.75;;;;;;;5.08;59.77;96730.75;4991594;28;20516;-62
2021/03/09 11:01:42;;;;;;;51.20;26.27;;;;;;;6.32;56.04;96726.63;5002848;28;20133;-64
2021/03/09 11:04:08;;;;;;;41.53;22.92;;;;;;;7.35;52.70;96719.28;4996931;28;20363;-62
2021/03/09 11:06:33;;;;;;;57.55;31.83;;;;;;;8.55;48.75;96713.91;5003370;28;20042;-61
2021/03/09 11:08:58;;;;;;;55.65;29.20;;;;;;;8.10;50.10;96715.88;5014074;28;20042;-63
2021/03/09 11:11:25;;;;;;;49.03;27.23;;;;;;;8.28;49.58;96715.56;5009975;28;20069;-63
2021/03/09 11:13:50;;;;;;;44.30;23.75;;;;;;;9.09;47.76;96712.44;5004971;28;20390;-61
2021/03/09 11:16:16;;;;;;;46.78;27.08;;;;;;;9.02;46.62;96717.75;4998149;28;20042;-61
2021/03/09 11:18:43;;;;;;;37.00;21.15;;;;;;;7.89;50.55;96718.06;5003732;28;20049;-62
2021/03/09 11:21:08;;;;;;;26.55;14.38;;;;;;;7.79;51.10;96717.41;4997808;28;20048;-62
2021/03/09 11:23:34;;;;;;;25.83;13.48;;;;;;;8.30;48.85;96707.81;5002067;28;20046;-61
2021/03/09 11:25:59;;;;;;;20.90;12.98;;;;;;;8.32;49.80;96714.53;5003174;28;20057;-61
2021/03/09 11:28:24;;;;;;;22.77;13.07;;;;;;;8.23;50.11;96711.19;4997927;28;20042;-61
2021/03/09 11:30:50;;;;;;;28.17;13.35;;;;;;;8.25;49.61;96706.16;5003155;28;20050;-58